Profil Rumah Sakit

RSU.A.YANI METRO

Ketersediaan Tempat Tidur

No Kelas Rawat Nama Ruang Kapasitas Tersedia Tglupdate
Umum Laki-laki Perempuan
1 NON RPDA KEMO 11 0 0 0 2018-03-28 08:14:31
2 NON R.NEONATUS 6 0 0 0 2018-03-28 08:14:01
3 VIP PAVILIUN 12 0 0 0 2018-03-28 08:14:56
4 KELAS I R.BEDAH I 2 0 0 0 2018-03-28 08:15:09
5 KELAS I R. SARAF 6 2 0 0 2018-03-28 08:16:58
6 KELAS I RPDC 4 2 0 0 2018-03-28 08:17:06
7 KELAS I RPDA 6 0 0 0 2018-03-28 08:17:43
8 KELAS I R.ANAK I 8 0 0 0 2018-03-28 08:18:16
9 KELAS I BERSALIN I 2 2 0 0 2018-03-28 08:17:17
10 KELAS I RPDB I 7 4 0 0 2018-03-28 08:15:25
11 KELAS II R.PARU NON TB 3 3 0 0 2018-03-28 08:19:26
12 KELAS II R.BEDAH II 5 4 0 0 2018-03-28 08:22:22
13 KELAS II R.SARAF II 6 3 0 0 2018-03-28 08:23:10
14 KELAS II RPDC II 12 0 0 0 2018-03-28 08:19:58
15 KELAS II R.ANAK II 6 1 0 0 2018-03-28 08:19:41
16 KELAS II BERSALIN II 2 2 0 0 2018-03-28 08:20:09
17 KELAS II RPDA II 6 1 0 0 2018-03-28 08:18:27
18 KELAS II RPDB II 6 0 0 0 2018-03-28 08:20:54
19 KELAS III R.PARU III TB 10 6 0 0 2018-03-28 08:24:51
20 KELAS III R.ANAK III 15 8 0 0 2018-03-28 08:25:12
21 KELAS III BERSALIN III 11 10 0 0 2018-03-28 08:24:14
22 KELAS III RPDA III 6 0 0 0 2018-03-28 08:25:21
23 KELAS III RPDB III 18 0 0 0 2018-03-28 08:25:32
24 KELAS III R.PARU III NON TB 10 3 0 0 2018-03-28 08:23:59
25 KELAS III R.BEDAH III 38 23 0 0 2018-03-28 08:23:41
26 KELAS III R. SARAF III 9 3 0 0 2018-03-28 08:24:35
27 KELAS III RPDC III 6 0 0 0 2018-03-28 08:23:26
28 ICU ICU 8 0 0 0 2018-03-01 10:12:15
* Informasi dapat berubah pada saat peserta sampai di Rumah Sakit.
* Kolom tersedia adalah jumlah bed tersedia secara umum, baik laki-laki, perempuan, infeksi, non infeksi, dll.
* Kolom tersedia (laki-laki) adalah jumlah bed tersedia khusus untuk pasien laki-laki.
* Kolom tersedia (perempuan) adalah jumlah bed tersedia khusus untuk pasien perempuan.

Sarana

No Nama Sarana Nama Fasilitas Jumlah Total Jumlah Baik Jumlah Rusak Tgl Update
1 BRONCHOSCOPY BRONCHOSCOPY 1 1 0 2017-06-12 01:59:42
2 ENDOSCOPY ENDOSCOPY 1 1 0 2017-06-12 01:59:47
3 HEMODIALISA MESIN HEMODIALISA 11 11 0 2017-06-12 01:59:51
4 RADIOLOGI CT SCAN 1 1 0 2017-06-12 01:59:54
5 RADIOLOGI PANORAMIC 1 1 0 2017-06-12 01:59:57
6 RADIOLOGI USG 4 4 0 2017-06-12 02:00:01

Jadwal Poli

No Nama Poli Jadwal Poli Jam Pelayanan Dokter Tgl Update